sensor_id;sensor_type;location;lat;lon;timestamp;temperature;humidity
13436;DHT22;6790;49.520;8.504;2022-07-23T00:00:14;22.60;98.80
13436;DHT22;6790;49.520;8.504;2022-07-23T00:02:41;22.60;98.00
13436;DHT22;6790;49.520;8.504;2022-07-23T00:05:07;22.60;98.60
13436;DHT22;6790;49.520;8.504;2022-07-23T00:07:34;22.60;98.40
13436;DHT22;6790;49.520;8.504;2022-07-23T00:09:59;22.50;98.90
13436;DHT22;6790;49.520;8.504;2022-07-23T00:12:25;22.60;99.10
13436;DHT22;6790;49.520;8.504;2022-07-23T00:14:51;22.60;98.70
13436;DHT22;6790;49.520;8.504;2022-07-23T00:17:17;22.70;98.10
13436;DHT22;6790;49.520;8.504;2022-07-23T00:19:43;22.70;97.10
13436;DHT22;6790;49.520;8.504;2022-07-23T00:22:08;22.80;97.20
13436;DHT22;6790;49.520;8.504;2022-07-23T00:24:34;22.80;96.90
13436;DHT22;6790;49.520;8.504;2022-07-23T00:27:00;22.80;98.00
13436;DHT22;6790;49.520;8.504;2022-07-23T00:29:25;22.60;98.10
13436;DHT22;6790;49.520;8.504;2022-07-23T00:31:51;22.60;98.10
13436;DHT22;6790;49.520;8.504;2022-07-23T00:34:17;22.50;99.00
13436;DHT22;6790;49.520;8.504;2022-07-23T00:36:42;22.50;98.50
13436;DHT22;6790;49.520;8.504;2022-07-23T00:39:08;22.50;97.80
13436;DHT22;6790;49.520;8.504;2022-07-23T00:41:34;22.50;97.40
13436;DHT22;6790;49.520;8.504;2022-07-23T00:44:20;22.50;97.30
13436;DHT22;6790;49.520;8.504;2022-07-23T00:46:53;22.50;97.40
13436;DHT22;6790;49.520;8.504;2022-07-23T00:49:26;22.50;97.00
13436;DHT22;6790;49.520;8.504;2022-07-23T00:51:53;22.50;97.50
13436;DHT22;6790;49.520;8.504;2022-07-23T00:54:22;22.50;98.80
13436;DHT22;6790;49.520;8.504;2022-07-23T00:56:49;22.40;97.90
13436;DHT22;6790;49.520;8.504;2022-07-23T00:59:15;22.40;98.10
13436;DHT22;6790;49.520;8.504;2022-07-23T01:01:41;22.40;98.20
13436;DHT22;6790;49.520;8.504;2022-07-23T01:04:06;22.40;98.20
13436;DHT22;6790;49.520;8.504;2022-07-23T01:06:37;22.40;98.40
13436;DHT22;6790;49.520;8.504;2022-07-23T01:09:07;22.40;98.90
13436;DHT22;6790;49.520;8.504;2022-07-23T01:11:34;22.40;98.30
13436;DHT22;6790;49.520;8.504;2022-07-23T01:14:17;22.30;98.30
13436;DHT22;6790;49.520;8.504;2022-07-23T01:16:45;22.40;98.30
13436;DHT22;6790;49.520;8.504;2022-07-23T01:19:13;22.40;98.50
13436;DHT22;6790;49.520;8.504;2022-07-23T01:21:46;22.30;99.20
13436;DHT22;6790;49.520;8.504;2022-07-23T01:24:14;22.20;98.50
13436;DHT22;6790;49.520;8.504;2022-07-23T01:26:44;22.20;99.90
13436;DHT22;6790;49.520;8.504;2022-07-23T01:29:11;22.10;98.90
13436;DHT22;6790;49.520;8.504;2022-07-23T01:31:37;22.10;98.90
13436;DHT22;6790;49.520;8.504;2022-07-23T01:34:02;22.00;99.30
13436;DHT22;6790;49.520;8.504;2022-07-23T01:36:29;22.00;99.50
13436;DHT22;6790;49.520;8.504;2022-07-23T01:38:55;21.90;99.70
13436;DHT22;6790;49.520;8.504;2022-07-23T01:41:21;21.90;99.40
13436;DHT22;6790;49.520;8.504;2022-07-23T01:43:47;21.80;99.90
13436;DHT22;6790;49.520;8.504;2022-07-23T01:46:12;21.80;99.70
13436;DHT22;6790;49.520;8.504;2022-07-23T01:48:38;21.80;99.90
13436;DHT22;6790;49.520;8.504;2022-07-23T01:51:04;21.70;99.90
13436;DHT22;6790;49.520;8.504;2022-07-23T01:53:30;21.70;99.90
13436;DHT22;6790;49.520;8.504;2022-07-23T01:55:59;21.60;99.90
13436;DHT22;6790;49.520;8.504;2022-07-23T01:58:25;21.60;99.90
13436;DHT22;6790;49.520;8.504;2022-07-23T02:00:52;21.60;99.90
13436;DHT22;6790;49.520;8.504;2022-07-23T02:03:18;21.70;99.90
13436;DHT22;6790;49.520;8.504;2022-07-23T02:05:44;21.70;99.90
13436;DHT22;6790;49.520;8.504;2022-07-23T02:08:10;21.70;99.90
13436;DHT22;6790;49.520;8.504;2022-07-23T02:10:36;21.60;99.90
13436;DHT22;6790;49.520;8.504;2022-07-23T02:13:01;21.60;99.90
13436;DHT22;6790;49.520;8.504;2022-07-23T02:15:27;21.60;99.90
13436;DHT22;6790;49.520;8.504;2022-07-23T02:17:54;21.50;99.90
13436;DHT22;6790;49.520;8.504;2022-07-23T02:20:21;21.40;99.90
13436;DHT22;6790;49.520;8.504;2022-07-23T02:22:47;21.40;99.90
13436;DHT22;6790;49.520;8.504;2022-07-23T02:25:13;21.40;99.90
13436;DHT22;6790;49.520;8.504;2022-07-23T02:27:39;21.40;99.90
13436;DHT22;6790;49.520;8.504;2022-07-23T02:30:05;21.30;99.90
13436;DHT22;6790;49.520;8.504;2022-07-23T02:32:31;21.30;99.90
13436;DHT22;6790;49.520;8.504;2022-07-23T02:34:57;21.30;99.90
13436;DHT22;6790;49.520;8.504;2022-07-23T02:37:23;21.30;99.90
13436;DHT22;6790;49.520;8.504;2022-07-23T02:39:49;21.30;99.90
13436;DHT22;6790;49.520;8.504;2022-07-23T02:42:15;21.30;99.90
13436;DHT22;6790;49.520;8.504;2022-07-23T02:44:41;21.30;99.90
13436;DHT22;6790;49.520;8.504;2022-07-23T02:47:07;21.20;99.90
13436;DHT22;6790;49.520;8.504;2022-07-23T02:49:33;21.20;99.90
13436;DHT22;6790;49.520;8.504;2022-07-23T02:51:58;21.30;99.90
13436;DHT22;6790;49.520;8.504;2022-07-23T02:54:24;21.20;99.90
13436;DHT22;6790;49.520;8.504;2022-07-23T02:56:50;21.20;99.90
13436;DHT22;6790;49.520;8.504;2022-07-23T02:59:17;21.20;99.90
13436;DHT22;6790;49.520;8.504;2022-07-23T03:01:43;21.10;99.90
13436;DHT22;6790;49.520;8.504;2022-07-23T03:04:09;21.10;99.90
13436;DHT22;6790;49.520;8.504;2022-07-23T03:06:35;21.00;99.90
13436;DHT22;6790;49.520;8.504;2022-07-23T03:09:01;21.00;99.90
13436;DHT22;6790;49.520;8.504;2022-07-23T03:11:28;21.00;99.90
13436;DHT22;6790;49.520;8.504;2022-07-23T03:13:53;21.00;99.90
13436;DHT22;6790;49.520;8.504;2022-07-23T03:16:19;21.00;99.90
13436;DHT22;6790;49.520;8.504;2022-07-23T03:18:45;20.90;99.90
13436;DHT22;6790;49.520;8.504;2022-07-23T03:21:10;20.80;99.90
13436;DHT22;6790;49.520;8.504;2022-07-23T03:23:36;20.80;99.90
13436;DHT22;6790;49.520;8.504;2022-07-23T03:26:02;20.80;99.90
13436;DHT22;6790;49.520;8.504;2022-07-23T03:28:28;20.80;99.90
13436;DHT22;6790;49.520;8.504;2022-07-23T03:30:54;20.80;99.90
13436;DHT22;6790;49.520;8.504;2022-07-23T03:33:20;20.80;99.90
13436;DHT22;6790;49.520;8.504;2022-07-23T03:35:47;20.80;99.90
13436;DHT22;6790;49.520;8.504;2022-07-23T03:38:13;20.90;99.90
13436;DHT22;6790;49.520;8.504;2022-07-23T03:40:39;20.90;99.90
13436;DHT22;6790;49.520;8.504;2022-07-23T03:43:05;20.90;99.90
13436;DHT22;6790;49.520;8.504;2022-07-23T03:45:31;20.90;99.90
13436;DHT22;6790;49.520;8.504;2022-07-23T03:47:57;20.90;99.90
13436;DHT22;6790;49.520;8.504;2022-07-23T03:50:23;20.90;99.90
13436;DHT22;6790;49.520;8.504;2022-07-23T03:52:49;20.90;99.90
13436;DHT22;6790;49.520;8.504;2022-07-23T03:55:15;20.90;99.90
13436;DHT22;6790;49.520;8.504;2022-07-23T03:57:41;20.80;99.90
13436;DHT22;6790;49.520;8.504;2022-07-23T04:00:08;20.70;99.90
13436;DHT22;6790;49.520;8.504;2022-07-23T04:02:36;20.60;99.90
13436;DHT22;6790;49.520;8.504;2022-07-23T04:05:03;20.60;99.90
13436;DHT22;6790;49.520;8.504;2022-07-23T04:07:29;20.60;99.90
13436;DHT22;6790;49.520;8.504;2022-07-23T04:09:55;20.60;99.90
13436;DHT22;6790;49.520;8.504;2022-07-23T04:12:21;20.50;99.90
13436;DHT22;6790;49.520;8.504;2022-07-23T04:14:47;20.40;99.90
13436;DHT22;6790;49.520;8.504;2022-07-23T04:17:12;20.40;99.90
13436;DHT22;6790;49.520;8.504;2022-07-23T04:19:38;20.40;99.90
13436;DHT22;6790;49.520;8.504;2022-07-23T04:22:07;20.50;99.90
13436;DHT22;6790;49.520;8.504;2022-07-23T04:24:34;20.50;99.90
13436;DHT22;6790;49.520;8.504;2022-07-23T04:27:00;20.50;99.90
13436;DHT22;6790;49.520;8.504;2022-07-23T04:29:26;20.60;99.90
13436;DHT22;6790;49.520;8.504;2022-07-23T04:31:52;20.60;99.90
13436;DHT22;6790;49.520;8.504;2022-07-23T04:34:18;20.60;99.90
13436;DHT22;6790;49.520;8.504;2022-07-23T04:36:43;20.60;99.90
13436;DHT22;6790;49.520;8.504;2022-07-23T04:39:09;20.50;99.90
13436;DHT22;6790;49.520;8.504;2022-07-23T04:41:35;20.50;99.90
13436;DHT22;6790;49.520;8.504;2022-07-23T04:44:01;20.50;99.90
13436;DHT22;6790;49.520;8.504;2022-07-23T04:46:27;20.50;99.90
13436;DHT22;6790;49.520;8.504;2022-07-23T04:48:53;20.20;99.90
13436;DHT22;6790;49.520;8.504;2022-07-23T04:51:20;20.10;99.90
13436;DHT22;6790;49.520;8.504;2022-07-23T04:53:46;20.00;99.90
13436;DHT22;6790;49.520;8.504;2022-07-23T04:56:11;19.80;99.90
13436;DHT22;6790;49.520;8.504;2022-07-23T04:58:38;19.70;99.90
13436;DHT22;6790;49.520;8.504;2022-07-23T05:01:04;19.70;99.90
13436;DHT22;6790;49.520;8.504;2022-07-23T05:03:29;19.70;99.90
13436;DHT22;6790;49.520;8.504;2022-07-23T05:05:55;19.70;99.90
13436;DHT22;6790;49.520;8.504;2022-07-23T05:08:21;19.60;99.90
13436;DHT22;6790;49.520;8.504;2022-07-23T05:10:47;19.50;99.90
13436;DHT22;6790;49.520;8.504;2022-07-23T05:13:15;19.50;99.90
13436;DHT22;6790;49.520;8.504;2022-07-23T05:15:42;19.40;99.90
13436;DHT22;6790;49.520;8.504;2022-07-23T05:18:08;19.20;99.90
13436;DHT22;6790;49.520;8.504;2022-07-23T05:20:33;19.20;99.90
13436;DHT22;6790;49.520;8.504;2022-07-23T05:22:59;19.20;99.90
13436;DHT22;6790;49.520;8.504;2022-07-23T05:25:25;19.20;99.90
13436;DHT22;6790;49.520;8.504;2022-07-23T05:27:51;19.30;99.90
13436;DHT22;6790;49.520;8.504;2022-07-23T05:30:17;19.30;99.90
13436;DHT22;6790;49.520;8.504;2022-07-23T05:32:43;19.20;99.90
13436;DHT22;6790;49.520;8.504;2022-07-23T05:35:08;19.20;99.90
13436;DHT22;6790;49.520;8.504;2022-07-23T05:37:34;19.20;99.90
13436;DHT22;6790;49.520;8.504;2022-07-23T05:40:05;19.10;99.90
13436;DHT22;6790;49.520;8.504;2022-07-23T05:42:42;19.10;99.90
13436;DHT22;6790;49.520;8.504;2022-07-23T05:45:08;19.10;99.90
13436;DHT22;6790;49.520;8.504;2022-07-23T05:47:45;19.10;99.90
13436;DHT22;6790;49.520;8.504;2022-07-23T05:50:13;19.10;99.90
13436;DHT22;6790;49.520;8.504;2022-07-23T05:52:39;19.10;99.90
13436;DHT22;6790;49.520;8.504;2022-07-23T05:55:15;19.00;99.90
13436;DHT22;6790;49.520;8.504;2022-07-23T05:57:41;19.00;99.90
13436;DHT22;6790;49.520;8.504;2022-07-23T06:00:08;19.10;99.90
13436;DHT22;6790;49.520;8.504;2022-07-23T06:02:36;19.10;99.90
13436;DHT22;6790;49.520;8.504;2022-07-23T06:05:02;19.10;99.90
13436;DHT22;6790;49.520;8.504;2022-07-23T06:07:28;19.10;99.90
13436;DHT22;6790;49.520;8.504;2022-07-23T06:09:54;19.10;99.90
13436;DHT22;6790;49.520;8.504;2022-07-23T06:12:19;19.00;99.90
13436;DHT22;6790;49.520;8.504;2022-07-23T06:14:45;19.10;99.90
13436;DHT22;6790;49.520;8.504;2022-07-23T06:17:13;19.40;99.90
13436;DHT22;6790;49.520;8.504;2022-07-23T06:19:39;19.50;99.90
13436;DHT22;6790;49.520;8.504;2022-07-23T06:22:05;19.60;99.90
13436;DHT22;6790;49.520;8.504;2022-07-23T06:24:30;19.70;99.90
13436;DHT22;6790;49.520;8.504;2022-07-23T06:26:56;19.60;99.90
13436;DHT22;6790;49.520;8.504;2022-07-23T06:29:22;19.50;99.90
13436;DHT22;6790;49.520;8.504;2022-07-23T06:31:47;19.60;99.90
13436;DHT22;6790;49.520;8.504;2022-07-23T06:34:13;19.60;99.90
13436;DHT22;6790;49.520;8.504;2022-07-23T06:36:39;19.80;99.90
13436;DHT22;6790;49.520;8.504;2022-07-23T06:39:04;19.90;99.90
13436;DHT22;6790;49.520;8.504;2022-07-23T06:41:30;20.00;99.90
13436;DHT22;6790;49.520;8.504;2022-07-23T06:43:56;19.90;99.90
13436;DHT22;6790;49.520;8.504;2022-07-23T06:46:22;19.90;99.90
13436;DHT22;6790;49.520;8.504;2022-07-23T06:48:47;19.80;99.90
13436;DHT22;6790;49.520;8.504;2022-07-23T06:51:13;19.90;99.90
13436;DHT22;6790;49.520;8.504;2022-07-23T06:53:39;19.80;99.90
13436;DHT22;6790;49.520;8.504;2022-07-23T06:56:06;19.90;99.90
13436;DHT22;6790;49.520;8.504;2022-07-23T06:58:32;19.80;99.90
13436;DHT22;6790;49.520;8.504;2022-07-23T07:00:58;19.70;99.90
13436;DHT22;6790;49.520;8.504;2022-07-23T07:03:24;19.80;99.90
13436;DHT22;6790;49.520;8.504;2022-07-23T07:05:49;19.70;99.90
13436;DHT22;6790;49.520;8.504;2022-07-23T07:08:15;19.70;99.90
13436;DHT22;6790;49.520;8.504;2022-07-23T07:10:42;19.70;99.90
13436;DHT22;6790;49.520;8.504;2022-07-23T07:13:08;19.60;99.90
13436;DHT22;6790;49.520;8.504;2022-07-23T07:15:33;19.60;99.90
13436;DHT22;6790;49.520;8.504;2022-07-23T07:17:59;19.60;99.90
13436;DHT22;6790;49.520;8.504;2022-07-23T07:20:25;19.70;99.90
13436;DHT22;6790;49.520;8.504;2022-07-23T07:22:51;19.70;99.90
13436;DHT22;6790;49.520;8.504;2022-07-23T07:25:17;19.80;99.90
13436;DHT22;6790;49.520;8.504;2022-07-23T07:27:42;19.80;99.90
13436;DHT22;6790;49.520;8.504;2022-07-23T07:30:10;19.80;99.90
13436;DHT22;6790;49.520;8.504;2022-07-23T07:32:36;19.80;99.90
13436;DHT22;6790;49.520;8.504;2022-07-23T07:35:03;20.00;99.90
13436;DHT22;6790;49.520;8.504;2022-07-23T07:37:29;20.00;99.90
13436;DHT22;6790;49.520;8.504;2022-07-23T07:39:55;20.10;99.90
13436;DHT22;6790;49.520;8.504;2022-07-23T07:42:21;20.30;99.90
13436;DHT22;6790;49.520;8.504;2022-07-23T07:44:47;20.50;99.90
13436;DHT22;6790;49.520;8.504;2022-07-23T07:47:12;20.60;99.90
13436;DHT22;6790;49.520;8.504;2022-07-23T07:49:41;20.70;99.90
13436;DHT22;6790;49.520;8.504;2022-07-23T07:52:07;20.80;99.90
13436;DHT22;6790;49.520;8.504;2022-07-23T07:54:33;21.00;99.90
13436;DHT22;6790;49.520;8.504;2022-07-23T07:56:59;21.00;99.90
13436;DHT22;6790;49.520;8.504;2022-07-23T07:59:24;20.80;99.90
13436;DHT22;6790;49.520;8.504;2022-07-23T08:01:50;21.10;99.90
13436;DHT22;6790;49.520;8.504;2022-07-23T08:04:16;21.60;99.90
13436;DHT22;6790;49.520;8.504;2022-07-23T08:06:42;21.90;99.90
13436;DHT22;6790;49.520;8.504;2022-07-23T08:09:08;21.90;99.90
13436;DHT22;6790;49.520;8.504;2022-07-23T08:11:51;22.00;99.90
13436;DHT22;6790;49.520;8.504;2022-07-23T08:14:18;21.80;99.90
13436;DHT22;6790;49.520;8.504;2022-07-23T08:16:43;21.70;99.90
13436;DHT22;6790;49.520;8.504;2022-07-23T08:19:09;21.70;99.90
13436;DHT22;6790;49.520;8.504;2022-07-23T08:21:35;21.80;99.90
13436;DHT22;6790;49.520;8.504;2022-07-23T08:24:00;22.10;99.90
13436;DHT22;6790;49.520;8.504;2022-07-23T08:26:26;22.30;99.90
13436;DHT22;6790;49.520;8.504;2022-07-23T08:28:52;22.50;99.90
13436;DHT22;6790;49.520;8.504;2022-07-23T08:31:17;22.80;99.90
13436;DHT22;6790;49.520;8.504;2022-07-23T08:33:44;22.90;99.90
13436;DHT22;6790;49.520;8.504;2022-07-23T08:36:10;22.90;99.90
13436;DHT22;6790;49.520;8.504;2022-07-23T08:38:35;23.10;99.90
13436;DHT22;6790;49.520;8.504;2022-07-23T08:41:01;23.30;99.90
13436;DHT22;6790;49.520;8.504;2022-07-23T08:43:29;23.30;99.90
13436;DHT22;6790;49.520;8.504;2022-07-23T08:45:58;23.30;99.90
13436;DHT22;6790;49.520;8.504;2022-07-23T08:48:33;23.30;99.90
13436;DHT22;6790;49.520;8.504;2022-07-23T08:51:10;23.30;99.90
13436;DHT22;6790;49.520;8.504;2022-07-23T08:53:40;23.10;99.90
13436;DHT22;6790;49.520;8.504;2022-07-23T08:56:07;23.10;99.90
13436;DHT22;6790;49.520;8.504;2022-07-23T08:58:33;22.80;99.90
13436;DHT22;6790;49.520;8.504;2022-07-23T09:01:00;22.90;99.90
13436;DHT22;6790;49.520;8.504;2022-07-23T09:03:31;23.20;99.90
13436;DHT22;6790;49.520;8.504;2022-07-23T09:06:00;23.50;99.90
13436;DHT22;6790;49.520;8.504;2022-07-23T09:08:43;23.70;99.90
13436;DHT22;6790;49.520;8.504;2022-07-23T09:11:12;23.70;99.90
13436;DHT22;6790;49.520;8.504;2022-07-23T09:13:52;24.10;99.90
13436;DHT22;6790;49.520;8.504;2022-07-23T09:16:28;24.30;99.90
13436;DHT22;6790;49.520;8.504;2022-07-23T09:18:59;24.40;99.90
13436;DHT22;6790;49.520;8.504;2022-07-23T09:24:06;24.70;99.90
13436;DHT22;6790;49.520;8.504;2022-07-23T09:26:44;25.00;99.90
13436;DHT22;6790;49.520;8.504;2022-07-23T09:29:23;25.10;99.90
13436;DHT22;6790;49.520;8.504;2022-07-23T09:31:59;25.20;99.90
13436;DHT22;6790;49.520;8.504;2022-07-23T09:34:29;25.20;99.90
13436;DHT22;6790;49.520;8.504;2022-07-23T09:36:58;25.10;99.90
13436;DHT22;6790;49.520;8.504;2022-07-23T09:39:35;25.10;99.90
13436;DHT22;6790;49.520;8.504;2022-07-23T09:44:48;25.00;99.90
13436;DHT22;6790;49.520;8.504;2022-07-23T09:47:15;24.80;99.90
13436;DHT22;6790;49.520;8.504;2022-07-23T09:52:43;24.90;99.90
13436;DHT22;6790;49.520;8.504;2022-07-23T09:55:14;25.00;99.90
13436;DHT22;6790;49.520;8.504;2022-07-23T09:57:41;24.90;99.90
13436;DHT22;6790;49.520;8.504;2022-07-23T10:00:12;24.90;99.90
13436;DHT22;6790;49.520;8.504;2022-07-23T10:02:39;25.30;99.90
13436;DHT22;6790;49.520;8.504;2022-07-23T10:05:06;25.70;99.90
13436;DHT22;6790;49.520;8.504;2022-07-23T10:07:36;25.80;99.90
13436;DHT22;6790;49.520;8.504;2022-07-23T10:10:04;25.60;99.90
13436;DHT22;6790;49.520;8.504;2022-07-23T10:12:31;25.80;99.90
13436;DHT22;6790;49.520;8.504;2022-07-23T10:15:15;26.00;99.90
13436;DHT22;6790;49.520;8.504;2022-07-23T10:17:41;25.80;99.90
13436;DHT22;6790;49.520;8.504;2022-07-23T10:20:07;26.00;99.90
13436;DHT22;6790;49.520;8.504;2022-07-23T10:22:42;26.00;99.90
13436;DHT22;6790;49.520;8.504;2022-07-23T10:25:27;25.60;98.60
13436;DHT22;6790;49.520;8.504;2022-07-23T10:28:26;26.00;99.90
13436;DHT22;6790;49.520;8.504;2022-07-23T10:40:10;26.40;99.50
13436;DHT22;6790;49.520;8.504;2022-07-23T10:42:43;26.60;99.90
13436;DHT22;6790;49.520;8.504;2022-07-23T10:45:23;26.80;97.60
13436;DHT22;6790;49.520;8.504;2022-07-23T10:47:53;27.00;97.40
13436;DHT22;6790;49.520;8.504;2022-07-23T10:50:29;26.80;93.60
13436;DHT22;6790;49.520;8.504;2022-07-23T10:58:00;26.80;98.30
13436;DHT22;6790;49.520;8.504;2022-07-23T11:00:29;26.90;98.00
13436;DHT22;6790;49.520;8.504;2022-07-23T11:03:03;26.50;94.00
13436;DHT22;6790;49.520;8.504;2022-07-23T11:05:50;26.60;95.50
13436;DHT22;6790;49.520;8.504;2022-07-23T11:08:19;26.80;93.00
13436;DHT22;6790;49.520;8.504;2022-07-23T11:10:46;27.00;92.80
13436;DHT22;6790;49.520;8.504;2022-07-23T11:13:26;26.90;95.30
13436;DHT22;6790;49.520;8.504;2022-07-23T11:16:19;27.40;90.70
13436;DHT22;6790;49.520;8.504;2022-07-23T11:18:52;27.60;91.20
13436;DHT22;6790;49.520;8.504;2022-07-23T11:31:52;27.10;92.10
13436;DHT22;6790;49.520;8.504;2022-07-23T11:34:40;27.60;91.00
13436;DHT22;6790;49.520;8.504;2022-07-23T11:37:12;27.10;89.20
13436;DHT22;6790;49.520;8.504;2022-07-23T11:39:56;27.40;89.00
13436;DHT22;6790;49.520;8.504;2022-07-23T11:42:23;27.70;86.10
13436;DHT22;6790;49.520;8.504;2022-07-23T11:44:50;27.80;89.20
13436;DHT22;6790;49.520;8.504;2022-07-23T11:47:23;27.90;87.30
13436;DHT22;6790;49.520;8.504;2022-07-23T11:49:58;27.30;89.50
13436;DHT22;6790;49.520;8.504;2022-07-23T11:52:26;27.00;91.40
13436;DHT22;6790;49.520;8.504;2022-07-23T11:55:06;27.20;93.40
13436;DHT22;6790;49.520;8.504;2022-07-23T11:57:36;27.50;90.30
13436;DHT22;6790;49.520;8.504;2022-07-23T12:02:43;27.30;91.60
13436;DHT22;6790;49.520;8.504;2022-07-23T12:05:24;27.00;93.80
13436;DHT22;6790;49.520;8.504;2022-07-23T12:07:53;27.00;91.30
13436;DHT22;6790;49.520;8.504;2022-07-23T12:10:25;26.80;93.40
13436;DHT22;6790;49.520;8.504;2022-07-23T12:13:09;26.50;90.40
13436;DHT22;6790;49.520;8.504;2022-07-23T12:15:40;26.30;92.80
13436;DHT22;6790;49.520;8.504;2022-07-23T12:18:10;26.40;89.80
13436;DHT22;6790;49.520;8.504;2022-07-23T12:20:39;26.20;94.50
13436;DHT22;6790;49.520;8.504;2022-07-23T12:23:08;26.00;92.40
13436;DHT22;6790;49.520;8.504;2022-07-23T12:25:53;25.70;94.20
13436;DHT22;6790;49.520;8.504;2022-07-23T12:28:22;25.60;95.10
13436;DHT22;6790;49.520;8.504;2022-07-23T12:30:57;25.50;94.80
13436;DHT22;6790;49.520;8.504;2022-07-23T12:33:30;25.50;96.60
13436;DHT22;6790;49.520;8.504;2022-07-23T12:36:02;25.60;98.80
13436;DHT22;6790;49.520;8.504;2022-07-23T12:38:41;25.70;95.70
13436;DHT22;6790;49.520;8.504;2022-07-23T12:41:08;25.70;95.10
13436;DHT22;6790;49.520;8.504;2022-07-23T12:43:37;25.80;93.40
13436;DHT22;6790;49.520;8.504;2022-07-23T12:46:12;26.20;92.80
13436;DHT22;6790;49.520;8.504;2022-07-23T12:51:19;27.50;90.40
13436;DHT22;6790;49.520;8.504;2022-07-23T12:53:54;28.00;90.30
13436;DHT22;6790;49.520;8.504;2022-07-23T12:56:32;28.50;88.00
13436;DHT22;6790;49.520;8.504;2022-07-23T13:01:52;28.90;84.20
13436;DHT22;6790;49.520;8.504;2022-07-23T13:04:24;29.00;74.60
13436;DHT22;6790;49.520;8.504;2022-07-23T13:06:56;29.40;78.10
13436;DHT22;6790;49.520;8.504;2022-07-23T13:09:25;29.50;76.10
13436;DHT22;6790;49.520;8.504;2022-07-23T13:11:54;28.90;78.10
13436;DHT22;6790;49.520;8.504;2022-07-23T13:14:21;28.30;80.10
13436;DHT22;6790;49.520;8.504;2022-07-23T13:16:49;27.80;82.20
13436;DHT22;6790;49.520;8.504;2022-07-23T13:19:21;27.60;84.10
13436;DHT22;6790;49.520;8.504;2022-07-23T13:21:47;27.80;73.90
13436;DHT22;6790;49.520;8.504;2022-07-23T13:24:13;27.70;83.00
13436;DHT22;6790;49.520;8.504;2022-07-23T13:26:39;27.60;79.60
13436;DHT22;6790;49.520;8.504;2022-07-23T13:29:06;27.30;83.70
13436;DHT22;6790;49.520;8.504;2022-07-23T13:31:32;27.10;89.40
13436;DHT22;6790;49.520;8.504;2022-07-23T13:33:58;26.90;87.10
13436;DHT22;6790;49.520;8.504;2022-07-23T13:36:44;26.90;89.40
13436;DHT22;6790;49.520;8.504;2022-07-23T13:39:10;26.80;86.70
13436;DHT22;6790;49.520;8.504;2022-07-23T13:41:37;26.80;91.90
13436;DHT22;6790;49.520;8.504;2022-07-23T13:44:04;26.60;90.50
13436;DHT22;6790;49.520;8.504;2022-07-23T13:46:29;26.60;90.00
13436;DHT22;6790;49.520;8.504;2022-07-23T13:48:55;26.80;86.50
13436;DHT22;6790;49.520;8.504;2022-07-23T13:51:21;26.90;83.70
13436;DHT22;6790;49.520;8.504;2022-07-23T13:53:47;27.30;82.10
13436;DHT22;6790;49.520;8.504;2022-07-23T13:56:12;28.00;78.70
13436;DHT22;6790;49.520;8.504;2022-07-23T13:58:38;29.20;70.00
13436;DHT22;6790;49.520;8.504;2022-07-23T14:01:05;29.50;73.80
13436;DHT22;6790;49.520;8.504;2022-07-23T14:03:31;29.20;75.30
13436;DHT22;6790;49.520;8.504;2022-07-23T14:05:57;28.90;77.40
13436;DHT22;6790;49.520;8.504;2022-07-23T14:08:24;29.00;82.70
13436;DHT22;6790;49.520;8.504;2022-07-23T14:10:50;29.20;74.80
13436;DHT22;6790;49.520;8.504;2022-07-23T14:13:15;29.00;67.20
13436;DHT22;6790;49.520;8.504;2022-07-23T14:15:41;29.00;77.10
13436;DHT22;6790;49.520;8.504;2022-07-23T14:18:07;29.40;74.60
13436;DHT22;6790;49.520;8.504;2022-07-23T14:20:36;29.60;72.30
13436;DHT22;6790;49.520;8.504;2022-07-23T14:23:05;29.60;65.00
13436;DHT22;6790;49.520;8.504;2022-07-23T14:25:31;29.50;62.90
13436;DHT22;6790;49.520;8.504;2022-07-23T14:27:57;29.30;73.00
13436;DHT22;6790;49.520;8.504;2022-07-23T14:30:22;28.70;68.60
13436;DHT22;6790;49.520;8.504;2022-07-23T14:32:51;28.80;73.80
13436;DHT22;6790;49.520;8.504;2022-07-23T14:35:17;29.00;66.40
13436;DHT22;6790;49.520;8.504;2022-07-23T14:37:44;29.20;72.40
13436;DHT22;6790;49.520;8.504;2022-07-23T14:40:10;28.90;63.20
13436;DHT22;6790;49.520;8.504;2022-07-23T14:42:35;28.60;72.30
13436;DHT22;6790;49.520;8.504;2022-07-23T14:45:01;28.50;65.60
13436;DHT22;6790;49.520;8.504;2022-07-23T14:47:27;28.50;77.20
13436;DHT22;6790;49.520;8.504;2022-07-23T14:49:53;28.80;64.50
13436;DHT22;6790;49.520;8.504;2022-07-23T14:52:19;28.50;65.30
13436;DHT22;6790;49.520;8.504;2022-07-23T14:54:44;28.60;79.10
13436;DHT22;6790;49.520;8.504;2022-07-23T14:57:10;28.30;70.60
13436;DHT22;6790;49.520;8.504;2022-07-23T14:59:36;27.90;73.10
13436;DHT22;6790;49.520;8.504;2022-07-23T15:02:02;27.90;79.60
13436;DHT22;6790;49.520;8.504;2022-07-23T15:04:28;27.80;73.00
13436;DHT22;6790;49.520;8.504;2022-07-23T15:06:54;27.70;73.70
13436;DHT22;6790;49.520;8.504;2022-07-23T15:09:21;27.70;81.60
13436;DHT22;6790;49.520;8.504;2022-07-23T15:11:46;27.60;71.00
13436;DHT22;6790;49.520;8.504;2022-07-23T15:14:12;27.60;72.80
13436;DHT22;6790;49.520;8.504;2022-07-23T15:16:38;27.60;73.00
13436;DHT22;6790;49.520;8.504;2022-07-23T15:19:04;27.50;73.00
13436;DHT22;6790;49.520;8.504;2022-07-23T15:21:30;27.60;76.50
13436;DHT22;6790;49.520;8.504;2022-07-23T15:23:57;27.60;73.00
13436;DHT22;6790;49.520;8.504;2022-07-23T15:26:25;27.60;73.90
13436;DHT22;6790;49.520;8.504;2022-07-23T15:28:51;27.70;81.90
13436;DHT22;6790;49.520;8.504;2022-07-23T15:31:18;27.60;70.80
13436;DHT22;6790;49.520;8.504;2022-07-23T15:33:43;27.60;69.60
13436;DHT22;6790;49.520;8.504;2022-07-23T15:36:09;27.60;75.80
13436;DHT22;6790;49.520;8.504;2022-07-23T15:38:35;27.90;77.20
13436;DHT22;6790;49.520;8.504;2022-07-23T15:41:01;28.40;73.90
13436;DHT22;6790;49.520;8.504;2022-07-23T15:43:26;28.40;66.10
13436;DHT22;6790;49.520;8.504;2022-07-23T15:45:53;28.40;64.80
13436;DHT22;6790;49.520;8.504;2022-07-23T15:48:20;28.00;68.30
13436;DHT22;6790;49.520;8.504;2022-07-23T15:50:46;27.90;69.40
13436;DHT22;6790;49.520;8.504;2022-07-23T15:53:12;27.70;70.20
13436;DHT22;6790;49.520;8.504;2022-07-23T15:55:38;27.50;71.00
13436;DHT22;6790;49.520;8.504;2022-07-23T15:58:05;27.40;64.30
13436;DHT22;6790;49.520;8.504;2022-07-23T16:00:31;27.40;67.60
13436;DHT22;6790;49.520;8.504;2022-07-23T16:03:04;27.20;72.80
13436;DHT22;6790;49.520;8.504;2022-07-23T16:05:30;27.10;76.50
13436;DHT22;6790;49.520;8.504;2022-07-23T16:07:56;27.00;80.60
13436;DHT22;6790;49.520;8.504;2022-07-23T16:10:22;26.90;70.70
13436;DHT22;6790;49.520;8.504;2022-07-23T16:12:48;26.80;78.50
13436;DHT22;6790;49.520;8.504;2022-07-23T16:15:14;26.80;77.70
13436;DHT22;6790;49.520;8.504;2022-07-23T16:17:40;26.80;79.00
13436;DHT22;6790;49.520;8.504;2022-07-23T16:20:06;26.80;71.80
13436;DHT22;6790;49.520;8.504;2022-07-23T16:22:33;26.80;82.00
13436;DHT22;6790;49.520;8.504;2022-07-23T16:24:59;26.90;74.40
13436;DHT22;6790;49.520;8.504;2022-07-23T16:27:25;27.10;78.20
13436;DHT22;6790;49.520;8.504;2022-07-23T16:29:51;27.20;76.90